Lancaster, Wisconsin
Current Conditions -  °F | °C
As of 12:15 AM on Monday 26 Jan 2015 (Local Time) from KPVB Reporting Station
Clear Clear  
Wind Chill: 16°   Ceiling: Unl
Heat Index: 16°   Visibility: 10mi
Dew Point: 12°   Wind: 3mph
Humidity: 82%   Direction: 30°NNE
Pressure: 30.03"   Gusts: NA
Location:  42.85°N, 90.71°W
Report Text: KPVB 260615Z AUTO 03003KT 10SM CLR M09/M11 A3003 RMK AO1 T10871113
Loading
Personal Weather Stations






























Interactive Weather Map New forecast layout! Learn more

10-Day Weather Forecast

Advertisements
Track Severe Weather on mobile